Time;durP1;ratioP1;P1;durP2;ratioP2;P2;SDS_P1;SDS_P2;PMS_P1;PMS_P2;Temp;Humidity;BMP_temperature;BMP_pressure;BME280_temperature;BME280_humidity;BME280_pressure;Samples;Min_cycle;Max_cycle;Signal;HPM_P1;HPM_P2
2021/09/04 00:02:14;;;;;;;11.43;8.02;;;13.30;99.90;;;;;;5069418;28;20244;-79
2021/09/04 00:04:40;;;;;;;10.88;7.70;;;13.40;99.90;;;;;;5071425;28;20181;-79
2021/09/04 00:07:07;;;;;;;11.77;8.30;;;13.40;99.90;;;;;;5052352;28;20194;-79
2021/09/04 00:09:33;;;;;;;11.30;7.65;;;13.50;99.90;;;;;;5052714;28;20243;-78
2021/09/04 00:11:59;;;;;;;13.07;8.15;;;13.50;99.90;;;;;;5070619;28;20200;-80
2021/09/04 00:14:25;;;;;;;12.98;7.82;;;13.50;99.90;;;;;;5069864;28;20169;-80
2021/09/04 00:16:51;;;;;;;13.20;8.85;;;13.60;99.90;;;;;;5052665;28;20193;-79
2021/09/04 00:19:16;;;;;;;11.05;7.55;;;13.70;99.90;;;;;;5069069;28;20186;-80
2021/09/04 00:21:43;;;;;;;12.70;7.93;;;13.60;99.90;;;;;;5069904;28;20201;-78
2021/09/04 00:24:09;;;;;;;11.68;7.57;;;13.70;99.90;;;;;;5070548;28;20537;-80
2021/09/04 00:26:34;;;;;;;10.52;7.45;;;13.70;99.90;;;;;;5069122;28;20189;-79
2021/09/04 00:29:00;;;;;;;10.35;7.03;;;13.70;99.90;;;;;;5052351;28;20648;-78
2021/09/04 00:31:25;;;;;;;8.82;6.18;;;13.80;99.90;;;;;;5069961;28;20209;-79
2021/09/04 00:33:51;;;;;;;8.98;6.13;;;13.70;99.90;;;;;;5069244;28;20707;-79
2021/09/04 00:36:17;;;;;;;9.57;6.35;;;13.80;99.90;;;;;;5069955;28;20210;-79
2021/09/04 00:38:42;;;;;;;10.82;6.88;;;13.90;99.90;;;;;;5052245;28;20181;-79
2021/09/04 00:41:08;;;;;;;11.10;7.03;;;13.90;99.90;;;;;;5069504;28;20197;-79
2021/09/04 00:43:34;;;;;;;12.73;7.40;;;13.80;99.90;;;;;;5069535;28;20182;-78
2021/09/04 00:46:08;;;;;;;10.82;7.10;;;13.80;99.90;;;;;;5068436;28;20181;-79
2021/09/04 00:48:33;;;;;;;12.15;6.85;;;13.80;99.90;;;;;;5051723;28;20188;-78
2021/09/04 00:50:59;;;;;;;14.48;8.18;;;13.80;99.90;;;;;;5068214;28;20213;-81
2021/09/04 00:53:24;;;;;;;10.40;7.25;;;13.90;99.90;;;;;;5067299;28;20188;-78
2021/09/04 00:55:50;;;;;;;12.77;7.40;;;13.80;99.90;;;;;;5068133;28;20177;-78
2021/09/04 00:58:16;;;;;;;15.20;8.30;;;13.80;99.90;;;;;;5067683;28;20182;-80
2021/09/04 01:00:42;;;;;;;11.07;7.03;;;13.90;99.90;;;;;;5050101;28;20202;-78
2021/09/04 01:03:07;;;;;;;12.50;7.93;;;13.90;99.90;;;;;;5066409;28;20742;-78
2021/09/04 01:05:33;;;;;;;12.48;7.88;;;14.00;99.90;;;;;;5049568;28;20192;-78
2021/09/04 01:08:00;;;;;;;13.80;7.28;;;13.90;99.90;;;;;;5066839;28;20185;-78
2021/09/04 01:10:26;;;;;;;11.25;6.97;;;13.90;99.90;;;;;;5067052;28;20221;-78
2021/09/04 01:12:52;;;;;;;13.63;7.63;;;13.90;99.90;;;;;;5048389;28;20170;-78
2021/09/04 01:15:19;;;;;;;11.10;6.53;;;14.00;99.90;;;;;;5065915;28;20196;-79
2021/09/04 01:17:45;;;;;;;11.65;7.43;;;14.00;99.90;;;;;;5067352;28;20713;-79
2021/09/04 01:20:11;;;;;;;10.00;6.57;;;13.90;99.90;;;;;;5068667;28;20206;-79
2021/09/04 01:22:37;;;;;;;9.85;6.55;;;14.00;99.90;;;;;;5067206;28;20178;-78
2021/09/04 01:25:06;;;;;;;9.63;6.72;;;14.00;99.90;;;;;;5068355;28;20180;-78
2021/09/04 01:27:34;;;;;;;9.38;6.28;;;14.00;99.90;;;;;;5068324;28;20185;-79
2021/09/04 01:30:00;;;;;;;11.27;6.57;;;14.00;99.90;;;;;;5049629;28;20212;-79
2021/09/04 01:32:25;;;;;;;10.38;5.63;;;14.00;99.90;;;;;;5068708;28;20204;-78
2021/09/04 01:34:51;;;;;;;9.95;6.60;;;14.00;99.90;;;;;;5050565;28;20217;-78
2021/09/04 01:37:17;;;;;;;11.07;6.38;;;14.00;99.90;;;;;;5068593;28;20177;-78
2021/09/04 01:39:42;;;;;;;9.30;6.07;;;14.00;99.90;;;;;;5068287;28;20649;-80
2021/09/04 01:42:08;;;;;;;12.20;6.22;;;14.00;99.90;;;;;;5049993;28;20670;-79
2021/09/04 01:44:33;;;;;;;9.95;6.43;;;13.90;99.90;;;;;;5049928;28;20542;-79
2021/09/04 01:46:59;;;;;;;10.43;6.60;;;13.90;99.90;;;;;;5067785;28;20274;-79
2021/09/04 01:49:25;;;;;;;10.27;7.40;;;14.00;99.90;;;;;;5067250;28;20173;-78
2021/09/04 01:51:51;;;;;;;10.98;6.38;;;13.90;99.90;;;;;;5068207;28;20209;-78
2021/09/04 01:54:16;;;;;;;10.43;6.18;;;13.90;99.90;;;;;;5066672;28;20177;-79
2021/09/04 01:56:42;;;;;;;9.90;6.40;;;13.80;99.90;;;;;;5067722;28;20184;-79
2021/09/04 01:59:07;;;;;;;10.63;6.38;;;13.80;99.90;;;;;;5067138;28;20687;-80
2021/09/04 02:01:33;;;;;;;11.77;7.28;;;13.70;99.90;;;;;;5068329;28;20201;-79
2021/09/04 02:03:58;;;;;;;12.05;7.18;;;13.70;99.90;;;;;;5049355;28;20260;-80
2021/09/04 02:06:25;;;;;;;10.98;6.07;;;13.70;99.90;;;;;;5050520;28;20178;-79
2021/09/04 02:08:50;;;;;;;10.77;6.80;;;13.80;99.90;;;;;;5068016;28;20170;-79
2021/09/04 02:11:16;;;;;;;13.98;6.63;;;13.80;99.90;;;;;;5049711;28;20208;-78
2021/09/04 02:13:41;;;;;;;12.00;7.13;;;13.80;99.90;;;;;;5050294;28;20187;-79
2021/09/04 02:16:07;;;;;;;13.00;7.63;;;13.70;99.90;;;;;;5049044;28;20603;-79
2021/09/04 02:18:33;;;;;;;12.77;7.55;;;13.80;99.90;;;;;;5066732;28;20261;-78
2021/09/04 02:21:00;;;;;;;10.57;7.10;;;13.80;99.90;;;;;;5050054;28;20219;-79
2021/09/04 02:23:26;;;;;;;16.92;8.73;;;13.80;99.90;;;;;;5067874;28;20193;-79
2021/09/04 02:25:51;;;;;;;12.43;7.57;;;13.80;99.90;;;;;;5068131;28;20548;-79
2021/09/04 02:28:18;;;;;;;12.85;7.18;;;13.90;99.90;;;;;;5067605;28;20551;-79
2021/09/04 02:30:43;;;;;;;11.95;7.75;;;13.90;99.90;;;;;;5050467;28;20201;-79
2021/09/04 02:33:10;;;;;;;12.65;8.05;;;13.90;99.90;;;;;;5068067;28;20177;-78
2021/09/04 02:35:36;;;;;;;10.85;7.25;;;13.90;99.90;;;;;;5065921;28;20600;-79
2021/09/04 02:38:02;;;;;;;12.05;7.15;;;13.90;99.90;;;;;;5067897;28;20185;-79
2021/09/04 02:40:28;;;;;;;12.10;7.25;;;13.90;99.90;;;;;;5068107;28;20198;-78
2021/09/04 02:42:53;;;;;;;11.05;6.97;;;13.80;99.90;;;;;;5067672;28;20196;-78
2021/09/04 02:45:19;;;;;;;11.00;6.65;;;13.80;99.90;;;;;;5068042;28;20419;-79
2021/09/04 02:47:45;;;;;;;9.57;6.65;;;13.90;99.90;;;;;;5068617;28;20182;-78
2021/09/04 02:50:10;;;;;;;11.35;6.43;;;13.90;99.90;;;;;;5067636;28;20205;-78
2021/09/04 02:52:36;;;;;;;10.02;5.85;;;13.80;99.90;;;;;;5067966;28;20174;-79
2021/09/04 02:55:02;;;;;;;15.10;6.35;;;13.80;99.90;;;;;;5067679;28;20185;-78
2021/09/04 02:57:27;;;;;;;10.55;6.95;;;13.80;99.90;;;;;;5050312;28;20200;-79
2021/09/04 02:59:53;;;;;;;9.82;6.22;;;13.70;99.90;;;;;;5049816;28;20291;-79
2021/09/04 03:02:18;;;;;;;11.43;6.43;;;13.70;99.90;;;;;;5065976;28;20186;-78
2021/09/04 03:04:44;;;;;;;8.20;5.80;;;13.80;99.90;;;;;;5045572;28;20192;-78
2021/09/04 03:07:10;;;;;;;9.77;5.47;;;13.70;99.90;;;;;;5046598;28;20185;-78
2021/09/04 03:09:35;;;;;;;8.40;4.90;;;13.60;99.90;;;;;;5044429;28;20212;-77
2021/09/04 03:12:03;;;;;;;10.20;6.53;;;13.60;99.90;;;;;;5064089;28;20241;-79
2021/09/04 03:14:29;;;;;;;10.30;5.95;;;13.50;99.90;;;;;;5063901;28;20174;-80
2021/09/04 03:16:55;;;;;;;10.38;6.07;;;13.50;99.90;;;;;;5067585;28;20282;-79
2021/09/04 03:19:21;;;;;;;10.52;6.13;;;13.50;99.90;;;;;;5067000;28;20185;-79
2021/09/04 03:21:47;;;;;;;10.30;6.05;;;13.40;99.90;;;;;;5048372;28;20182;-79
2021/09/04 03:24:12;;;;;;;8.27;5.75;;;13.50;99.90;;;;;;5064236;28;21244;-78
2021/09/04 03:26:38;;;;;;;11.55;5.90;;;13.40;99.90;;;;;;5050530;28;20181;-78
2021/09/04 03:29:03;;;;;;;9.38;5.80;;;13.40;99.90;;;;;;5048852;28;20257;-77
2021/09/04 03:31:29;;;;;;;9.95;6.05;;;13.40;99.90;;;;;;5049408;28;20683;-78
2021/09/04 03:33:55;;;;;;;11.30;6.45;;;13.40;99.90;;;;;;5048687;28;20186;-77
2021/09/04 03:36:20;;;;;;;9.38;5.63;;;13.30;99.90;;;;;;5065521;28;20249;-78
2021/09/04 03:38:46;;;;;;;10.55;5.70;;;13.40;99.90;;;;;;5067131;28;20177;-80
2021/09/04 03:41:11;;;;;;;8.88;5.82;;;13.40;99.90;;;;;;5049766;28;20206;-79
2021/09/04 03:43:37;;;;;;;10.73;6.40;;;13.40;99.90;;;;;;5067346;28;20182;-78
2021/09/04 03:46:03;;;;;;;8.30;5.88;;;13.40;99.90;;;;;;5049340;28;20185;-80
2021/09/04 03:48:28;;;;;;;10.15;5.82;;;13.30;99.90;;;;;;5067226;28;20813;-78
2021/09/04 03:50:54;;;;;;;8.13;5.47;;;13.40;99.90;;;;;;5049534;28;20207;-79
2021/09/04 03:53:19;;;;;;;7.25;5.50;;;13.30;99.90;;;;;;5049466;28;20181;-79
2021/09/04 03:55:45;;;;;;;9.32;5.53;;;13.20;99.90;;;;;;5066994;28;20623;-78
2021/09/04 03:58:10;;;;;;;10.82;6.78;;;13.20;99.90;;;;;;5065881;28;20203;-77
2021/09/04 04:00:36;;;;;;;10.95;5.10;;;13.20;99.90;;;;;;5049675;28;20695;-77
2021/09/04 04:03:02;;;;;;;9.50;5.65;;;13.20;99.90;;;;;;5049156;28;20448;-78
2021/09/04 04:05:27;;;;;;;8.10;5.25;;;13.10;99.90;;;;;;5069074;28;20185;-79
2021/09/04 04:07:53;;;;;;;7.75;4.88;;;13.10;99.90;;;;;;5049682;28;20276;-78
2021/09/04 04:10:19;;;;;;;9.65;4.85;;;13.10;99.90;;;;;;5067191;28;20276;-77
2021/09/04 04:12:44;;;;;;;7.57;4.53;;;13.20;99.90;;;;;;5066920;28;20192;-78
2021/09/04 04:15:10;;;;;;;8.43;4.22;;;13.10;99.90;;;;;;5048494;28;20264;-78
2021/09/04 04:17:36;;;;;;;8.13;4.40;;;13.10;99.90;;;;;;5066174;28;20199;-79
2021/09/04 04:20:03;;;;;;;7.53;3.72;;;13.00;99.90;;;;;;5064754;28;20531;-77
2021/09/04 04:22:29;;;;;;;6.93;3.90;;;13.00;99.90;;;;;;5066343;28;20186;-77
2021/09/04 04:24:54;;;;;;;8.80;4.32;;;13.00;99.90;;;;;;5066278;28;20182;-79
2021/09/04 04:27:20;;;;;;;5.13;3.80;;;13.00;99.90;;;;;;5048246;28;21099;-80
2021/09/04 04:29:45;;;;;;;6.35;4.07;;;12.90;99.90;;;;;;5067543;28;20695;-79
2021/09/04 04:32:11;;;;;;;11.48;4.38;;;12.90;99.90;;;;;;5047935;28;20675;-77
2021/09/04 04:34:37;;;;;;;7.03;4.03;;;13.00;99.90;;;;;;5067249;28;20170;-77
2021/09/04 04:37:03;;;;;;;4.80;3.85;;;13.00;99.90;;;;;;5049036;28;20586;-80
2021/09/04 04:39:28;;;;;;;8.27;4.00;;;13.00;99.90;;;;;;5049021;28;20643;-79
2021/09/04 04:41:54;;;;;;;5.50;3.40;;;13.10;99.90;;;;;;5066158;28;20180;-77
2021/09/04 04:44:19;;;;;;;5.45;3.42;;;13.10;99.90;;;;;;5049006;28;20170;-79
2021/09/04 04:46:45;;;;;;;5.00;3.60;;;13.10;99.90;;;;;;5067329;28;20215;-78
2021/09/04 04:49:10;;;;;;;6.35;3.78;;;13.00;99.90;;;;;;5066001;28;20667;-78
2021/09/04 04:51:36;;;;;;;7.68;3.72;;;13.00;99.90;;;;;;5048411;28;20213;-80
2021/09/04 04:54:03;;;;;;;6.03;3.35;;;13.00;99.90;;;;;;5048108;28;20556;-79
2021/09/04 04:56:29;;;;;;;5.95;3.22;;;13.00;99.90;;;;;;5056293;28;20259;-80
2021/09/04 04:58:54;;;;;;;4.15;3.50;;;13.00;99.90;;;;;;5047979;28;20222;-78
2021/09/04 05:01:20;;;;;;;4.72;3.25;;;13.00;99.90;;;;;;5066319;28;20205;-79
2021/09/04 05:03:45;;;;;;;6.20;3.17;;;13.10;99.90;;;;;;5048048;28;20192;-78
2021/09/04 05:06:11;;;;;;;6.53;4.07;;;13.10;99.90;;;;;;5048229;28;20193;-79
2021/09/04 05:08:37;;;;;;;6.82;3.70;;;13.20;99.90;;;;;;5065745;28;20192;-79
2021/09/04 05:11:02;;;;;;;5.82;3.65;;;13.30;99.90;;;;;;5066070;28;20205;-78
2021/09/04 05:13:28;;;;;;;6.20;3.40;;;13.30;99.90;;;;;;5066511;28;20311;-77
2021/09/04 05:15:53;;;;;;;7.03;3.72;;;13.40;99.90;;;;;;5065462;28;20279;-79
2021/09/04 05:18:19;;;;;;;5.80;3.65;;;13.40;99.90;;;;;;5048120;28;20554;-79
2021/09/04 05:20:46;;;;;;;6.68;3.15;;;13.40;99.90;;;;;;5065879;28;20202;-78
2021/09/04 05:23:12;;;;;;;6.57;3.13;;;13.40;99.90;;;;;;5065259;28;20177;-80
2021/09/04 05:25:37;;;;;;;6.45;3.88;;;13.40;99.90;;;;;;5065546;28;20195;-78
2021/09/04 05:28:04;;;;;;;4.40;3.40;;;13.40;99.90;;;;;;5065341;28;20227;-79
2021/09/04 05:30:30;;;;;;;5.30;3.50;;;13.40;99.90;;;;;;5065077;28;20201;-79
2021/09/04 05:32:56;;;;;;;5.45;3.28;;;13.50;99.90;;;;;;5065355;28;20677;-78
2021/09/04 05:35:21;;;;;;;7.00;3.85;;;13.40;99.90;;;;;;5047207;28;20238;-78
2021/09/04 05:37:47;;;;;;;5.03;3.40;;;13.50;99.90;;;;;;5047322;28;20590;-79
2021/09/04 05:40:13;;;;;;;5.53;3.45;;;13.60;99.90;;;;;;5064998;28;20204;-79
2021/09/04 05:42:38;;;;;;;5.30;3.42;;;13.60;99.90;;;;;;5047657;28;20189;-77
2021/09/04 05:45:06;;;;;;;4.90;3.30;;;13.60;99.90;;;;;;5065069;28;20213;-79
2021/09/04 05:47:31;;;;;;;5.40;3.65;;;13.60;99.90;;;;;;5063928;28;20190;-78
2021/09/04 05:49:57;;;;;;;5.18;3.28;;;13.70;99.90;;;;;;5046341;28;20585;-80
2021/09/04 05:52:23;;;;;;;6.53;3.63;;;13.60;99.90;;;;;;5062763;28;20304;-80
2021/09/04 05:54:48;;;;;;;4.63;2.95;;;13.70;99.90;;;;;;5048753;28;20241;-81
2021/09/04 05:57:14;;;;;;;5.35;2.97;;;13.60;99.90;;;;;;5047945;28;20188;-79
2021/09/04 05:59:40;;;;;;;4.63;3.00;;;13.70;99.90;;;;;;5045037;28;20205;-78
2021/09/04 06:02:05;;;;;;;8.75;3.58;;;13.70;99.90;;;;;;5064829;28;21240;-80
2021/09/04 06:04:34;;;;;;;4.68;2.80;;;13.70;99.90;;;;;;5063957;28;20180;-80
2021/09/04 06:06:59;;;;;;;3.95;2.80;;;13.80;99.90;;;;;;5063450;28;20185;-78
2021/09/04 06:09:25;;;;;;;6.40;3.40;;;13.80;99.90;;;;;;5046677;28;20358;-80
2021/09/04 06:11:50;;;;;;;4.95;2.88;;;13.80;99.90;;;;;;5046980;28;20189;-78
2021/09/04 06:14:17;;;;;;;6.18;3.78;;;13.90;99.90;;;;;;5045101;28;20276;-80
2021/09/04 06:16:42;;;;;;;4.45;3.22;;;13.90;99.90;;;;;;5046573;28;21121;-76
2021/09/04 06:19:08;;;;;;;4.57;2.70;;;13.80;99.90;;;;;;5063617;28;20196;-78
2021/09/04 06:21:34;;;;;;;4.00;3.03;;;13.90;99.90;;;;;;5063537;28;20198;-77
2021/09/04 06:24:01;;;;;;;4.38;2.60;;;13.90;99.90;;;;;;5063966;28;20180;-78
2021/09/04 06:26:26;;;;;;;4.95;2.80;;;13.90;99.90;;;;;;5063741;28;20188;-78
2021/09/04 06:28:52;;;;;;;3.90;2.25;;;14.00;99.90;;;;;;5063577;28;20190;-79
2021/09/04 06:31:17;;;;;;;4.03;2.28;;;14.00;99.90;;;;;;5046650;28;20207;-77
2021/09/04 06:33:43;;;;;;;2.92;1.92;;;14.10;99.90;;;;;;5044845;28;20230;-77
2021/09/04 06:36:09;;;;;;;3.20;1.67;;;14.20;99.90;;;;;;5046008;28;20640;-79
2021/09/04 06:38:34;;;;;;;6.88;2.05;;;14.10;99.90;;;;;;5046172;28;20593;-77
2021/09/04 06:41:01;;;;;;;2.33;1.30;;;14.10;99.90;;;;;;5046256;28;20249;-79
2021/09/04 06:43:26;;;;;;;3.35;1.40;;;14.30;99.90;;;;;;5063650;28;20192;-78
2021/09/04 06:45:53;;;;;;;3.72;1.30;;;14.30;99.90;;;;;;5046547;28;20177;-79
2021/09/04 06:48:19;;;;;;;3.50;1.58;;;14.30;99.90;;;;;;5064040;28;20655;-78
2021/09/04 06:50:44;;;;;;;3.55;1.50;;;14.30;99.90;;;;;;5048360;28;20205;-79
2021/09/04 06:53:10;;;;;;;3.85;1.70;;;14.50;99.90;;;;;;5068198;28;20268;-77
2021/09/04 06:55:35;;;;;;;4.88;1.45;;;14.50;99.90;;;;;;5066791;28;20178;-79
2021/09/04 06:58:01;;;;;;;2.45;1.17;;;14.50;99.90;;;;;;5049220;28;20528;-79
2021/09/04 07:00:27;;;;;;;3.33;1.33;;;14.70;99.90;;;;;;5050443;28;20197;-78
2021/09/04 07:02:52;;;;;;;3.08;1.45;;;14.70;99.90;;;;;;5050679;28;20525;-79
2021/09/04 07:05:18;;;;;;;2.58;1.40;;;14.70;99.90;;;;;;5042422;28;20182;-78
2021/09/04 07:07:45;;;;;;;2.33;1.60;;;14.80;99.90;;;;;;5050758;28;20280;-80
2021/09/04 07:10:11;;;;;;;4.18;1.75;;;14.80;99.90;;;;;;5049843;28;20213;-79
2021/09/04 07:12:36;;;;;;;2.50;1.60;;;14.70;99.90;;;;;;5068716;28;20193;-78
2021/09/04 07:15:02;;;;;;;2.17;1.60;;;14.70;99.90;;;;;;5058042;28;20174;-79
2021/09/04 07:17:28;;;;;;;6.47;2.20;;;14.80;99.90;;;;;;5067798;28;20251;-78
2021/09/04 07:19:53;;;;;;;4.60;1.85;;;14.80;99.90;;;;;;5067243;28;20762;-78
2021/09/04 07:22:19;;;;;;;3.03;2.20;;;14.80;99.90;;;;;;5068343;28;20185;-77
2021/09/04 07:24:45;;;;;;;3.38;1.70;;;14.90;99.90;;;;;;5068082;28;20181;-78
2021/09/04 07:27:10;;;;;;;3.38;1.60;;;14.90;99.90;;;;;;5050018;28;20186;-78
2021/09/04 07:29:36;;;;;;;3.63;1.70;;;15.00;99.90;;;;;;5067640;28;20201;-79
2021/09/04 07:32:01;;;;;;;3.25;1.90;;;15.10;99.90;;;;;;5049866;28;20231;-78
2021/09/04 07:34:27;;;;;;;3.90;1.50;;;15.20;99.90;;;;;;5050576;28;20196;-79
2021/09/04 07:36:53;;;;;;;2.17;1.98;;;15.20;99.90;;;;;;5050935;28;20186;-78
2021/09/04 07:39:18;;;;;;;2.05;1.73;;;15.10;99.90;;;;;;5050684;28;20594;-79
2021/09/04 07:41:44;;;;;;;3.00;2.38;;;15.10;99.90;;;;;;5059325;28;20184;-79
2021/09/04 07:44:10;;;;;;;2.63;1.90;;;15.10;99.90;;;;;;5051827;28;20215;-79
2021/09/04 07:46:35;;;;;;;2.65;2.08;;;15.20;99.90;;;;;;5051619;28;20184;-79
2021/09/04 07:49:01;;;;;;;5.22;2.70;;;15.10;99.90;;;;;;5051518;28;20189;-79
2021/09/04 07:51:27;;;;;;;3.67;2.30;;;15.30;99.90;;;;;;5069815;28;20209;-78
2021/09/04 07:53:52;;;;;;;5.15;2.58;;;15.40;99.90;;;;;;5067341;28;21148;-79
2021/09/04 07:56:18;;;;;;;3.90;2.53;;;15.40;99.90;;;;;;5051928;28;20193;-79
2021/09/04 07:58:43;;;;;;;3.05;2.58;;;15.60;99.90;;;;;;5068644;28;20178;-78
2021/09/04 08:01:09;;;;;;;5.22;2.80;;;15.50;99.90;;;;;;5066813;28;20209;-78
2021/09/04 08:03:34;;;;;;;4.47;2.75;;;15.20;99.90;;;;;;5067397;28;21362;-79
2021/09/04 08:06:00;;;;;;;3.13;2.03;;;15.30;99.90;;;;;;5068363;28;20192;-80
2021/09/04 08:08:26;;;;;;;3.00;2.28;;;15.30;99.90;;;;;;5051264;28;20722;-79
2021/09/04 08:10:51;;;;;;;2.88;2.55;;;15.40;99.90;;;;;;5051721;28;20901;-80
2021/09/04 08:13:17;;;;;;;3.67;2.63;;;15.40;99.90;;;;;;5050546;28;20187;-79
2021/09/04 08:15:44;;;;;;;2.78;2.47;;;15.30;99.90;;;;;;5051006;28;20200;-79
2021/09/04 08:18:09;;;;;;;3.08;2.45;;;15.20;99.90;;;;;;5051034;28;20200;-79
2021/09/04 08:20:35;;;;;;;4.78;2.78;;;15.40;99.90;;;;;;5051971;28;20696;-81
2021/09/04 08:23:06;;;;;;;2.60;1.98;;;15.50;99.90;;;;;;5068421;28;20263;-79
2021/09/04 08:25:32;;;;;;;4.50;2.55;;;15.50;99.90;;;;;;5059886;28;20204;-79
2021/09/04 08:27:57;;;;;;;4.78;2.75;;;15.70;99.90;;;;;;5050845;28;20185;-78
2021/09/04 08:30:23;;;;;;;4.88;2.78;;;16.00;99.90;;;;;;5069078;28;20251;-79
2021/09/04 08:32:49;;;;;;;4.13;2.58;;;16.10;99.90;;;;;;5051178;28;20178;-79
2021/09/04 08:35:14;;;;;;;4.30;2.47;;;16.20;99.90;;;;;;5068551;28;20173;-79
2021/09/04 08:37:41;;;;;;;3.92;2.65;;;16.20;99.90;;;;;;5068340;28;20181;-79
2021/09/04 08:40:07;;;;;;;6.95;2.85;;;16.30;99.90;;;;;;5067973;28;20221;-78
2021/09/04 08:42:34;;;;;;;4.00;2.65;;;16.30;99.90;;;;;;5067725;28;20186;-79
2021/09/04 08:45:00;;;;;;;3.78;2.35;;;16.30;99.90;;;;;;5066276;28;20197;-79
2021/09/04 08:47:28;;;;;;;3.95;2.65;;;16.10;99.90;;;;;;5048347;28;20177;-79
2021/09/04 08:49:54;;;;;;;4.22;2.58;;;16.30;99.90;;;;;;5065961;28;20224;-79
2021/09/04 08:52:20;;;;;;;4.15;3.30;;;16.30;99.90;;;;;;5045390;28;20276;-79
2021/09/04 08:54:47;;;;;;;4.75;2.65;;;16.30;99.90;;;;;;5065673;28;20265;-78
2021/09/04 08:57:12;;;;;;;4.25;3.10;;;16.40;99.90;;;;;;5047814;28;20189;-80
2021/09/04 08:59:38;;;;;;;5.20;2.95;;;16.40;99.90;;;;;;5049050;28;20198;-79
2021/09/04 09:02:11;;;;;;;4.75;3.20;;;16.60;99.90;;;;;;5048211;28;20209;-79
2021/09/04 09:04:36;;;;;;;6.05;3.13;;;16.80;99.90;;;;;;5066876;28;20165;-79
2021/09/04 09:07:02;;;;;;;3.10;2.75;;;16.80;99.90;;;;;;5067112;28;20231;-79
2021/09/04 09:09:28;;;;;;;5.18;2.95;;;16.90;99.90;;;;;;5049875;28;20265;-78
2021/09/04 09:11:55;;;;;;;7.72;3.50;;;16.90;99.90;;;;;;5067370;28;20201;-80
2021/09/04 09:14:23;;;;;;;4.57;2.75;;;16.90;99.90;;;;;;5066178;28;20231;-79
2021/09/04 09:16:57;;;;;;;4.22;3.50;;;17.10;99.90;;;;;;5067435;28;20189;-79
2021/09/04 09:19:27;;;;;;;3.63;2.63;;;17.20;99.90;;;;;;5056505;28;20724;-79
2021/09/04 09:21:56;;;;;;;5.63;2.95;;;17.20;99.90;;;;;;5066843;28;20224;-79
2021/09/04 09:24:21;;;;;;;3.15;2.60;;;16.90;99.90;;;;;;5041396;28;20214;-79
2021/09/04 09:26:55;;;;;;;4.18;2.47;;;16.80;99.90;;;;;;5067253;28;20193;-79
2021/09/04 09:29:33;;;;;;;5.10;2.95;;;17.00;99.90;;;;;;5048606;28;20193;-79
2021/09/04 09:32:03;;;;;;;3.22;2.78;;;16.90;99.90;;;;;;5067248;28;20177;-79
2021/09/04 09:34:29;;;;;;;3.63;2.92;;;17.20;99.90;;;;;;5065588;28;20178;-79
2021/09/04 09:36:56;;;;;;;3.30;3.00;;;17.30;99.90;;;;;;5065559;28;20231;-79
2021/09/04 09:39:32;;;;;;;6.07;2.47;;;17.30;99.90;;;;;;5065600;28;20181;-79
2021/09/04 09:41:59;;;;;;;3.38;2.50;;;17.30;99.90;;;;;;5045408;28;20192;-79
2021/09/04 09:44:36;;;;;;;3.50;2.45;;;17.10;99.90;;;;;;5065793;28;20184;-79
2021/09/04 09:47:08;;;;;;;5.25;2.28;;;17.40;99.90;;;;;;5048237;28;20188;-77
2021/09/04 09:49:45;;;;;;;3.83;2.25;;;17.60;99.90;;;;;;5065439;28;20205;-80
2021/09/04 09:52:17;;;;;;;3.00;2.25;;;17.50;99.90;;;;;;5048160;28;20228;-78
2021/09/04 09:54:45;;;;;;;3.67;2.22;;;17.50;99.90;;;;;;5066005;28;20205;-79
2021/09/04 09:57:12;;;;;;;3.50;2.42;;;17.30;99.90;;;;;;5047687;28;20309;-79
2021/09/04 09:59:45;;;;;;;3.72;2.30;;;17.30;99.90;;;;;;5066846;28;20751;-80
2021/09/04 10:02:13;;;;;;;4.60;2.20;;;17.50;99.90;;;;;;5066545;28;20189;-78
2021/09/04 10:04:40;;;;;;;3.10;2.25;;;17.10;99.90;;;;;;5047816;28;20207;-79
2021/09/04 10:07:09;;;;;;;4.47;2.53;;;17.00;99.90;;;;;;5065763;28;20830;-79
2021/09/04 10:09:37;;;;;;;2.85;2.58;;;17.30;99.90;;;;;;5048261;28;20201;-79
2021/09/04 10:12:03;;;;;;;4.70;2.60;;;17.50;99.90;;;;;;5065331;28;20173;-79
2021/09/04 10:14:29;;;;;;;3.25;2.38;;;17.70;99.90;;;;;;5065202;28;20224;-79
2021/09/04 10:16:58;;;;;;;3.80;2.70;;;18.00;99.90;;;;;;5065241;28;20193;-78
2021/09/04 10:19:27;;;;;;;3.35;2.00;;;18.30;99.90;;;;;;5047294;28;20178;-79
2021/09/04 10:22:01;;;;;;;3.45;2.20;;;18.60;99.90;;;;;;5047878;28;20509;-78
2021/09/04 10:24:42;;;;;;;4.03;1.98;;;18.80;99.90;;;;;;5049774;28;20192;-78
2021/09/04 10:27:09;;;;;;;4.07;1.88;;;18.80;99.90;;;;;;5067702;28;20192;-78
2021/09/04 10:29:43;;;;;;;5.30;2.03;;;18.90;99.90;;;;;;5066361;28;20213;-78
2021/09/04 10:32:12;;;;;;;5.03;2.13;;;19.00;99.90;;;;;;5067238;28;20633;-79
2021/09/04 10:34:40;;;;;;;3.13;1.90;;;18.90;99.90;;;;;;5050089;28;20177;-78
2021/09/04 10:37:12;;;;;;;5.25;2.10;;;18.80;99.90;;;;;;5063231;28;20183;-79
2021/09/04 10:39:57;;;;;;;3.90;2.10;;;18.90;99.90;;;;;;5067349;28;20193;-79
2021/09/04 10:42:29;;;;;;;2.60;1.77;;;18.60;99.90;;;;;;5070277;28;20182;-79
2021/09/04 10:45:06;;;;;;;3.65;1.90;;;18.70;99.90;;;;;;5061592;28;20253;-80
2021/09/04 10:47:52;;;;;;;3.83;2.28;;;19.10;99.90;;;;;;5059812;28;20204;-79
2021/09/04 10:50:24;;;;;;;5.65;2.42;;;19.50;99.90;;;;;;5068963;28;20217;-78
2021/09/04 10:52:49;;;;;;;5.38;2.22;;;19.60;99.90;;;;;;5068708;28;20174;-78
2021/09/04 10:55:33;;;;;;;5.20;2.30;;;19.50;99.90;;;;;;5051353;28;20201;-77
2021/09/04 10:58:07;;;;;;;3.92;1.85;;;19.20;99.90;;;;;;5043344;28;20173;-79
2021/09/04 11:00:44;;;;;;;3.70;2.05;;;18.50;99.90;;;;;;5064758;28;20574;-80
2021/09/04 11:03:17;;;;;;;3.47;2.25;;;18.40;99.90;;;;;;5063908;28;20631;-79
2021/09/04 11:05:55;;;;;;;4.45;2.00;;;18.70;99.90;;;;;;5065258;28;20507;-80
2021/09/04 11:08:20;;;;;;;5.07;2.42;;;18.80;99.90;;;;;;5066171;28;20186;-79
2021/09/04 11:11:17;;;;;;;1.90;1.67;;;18.80;99.90;;;;;;5050115;28;20218;-79
2021/09/04 11:14:19;;;;;;;3.20;2.22;;;19.20;99.90;;;;;;5049706;28;20223;-79
2021/09/04 11:16:58;;;;;;;4.25;2.35;;;19.10;99.90;;;;;;5048963;28;20217;-79
2021/09/04 11:19:28;;;;;;;3.83;2.00;;;19.00;99.90;;;;;;5070202;28;20170;-79
2021/09/04 11:22:02;;;;;;;4.43;2.40;;;18.10;99.90;;;;;;5069843;28;20177;-78
2021/09/04 11:24:32;;;;;;;4.50;2.70;;;17.50;99.90;;;;;;5062280;28;20177;-77
2021/09/04 11:27:02;;;;;;;3.13;2.00;;;17.30;99.90;;;;;;5066143;28;20170;-79
2021/09/04 11:29:28;;;;;;;5.75;2.30;;;17.60;99.90;;;;;;5049161;28;20284;-79
2021/09/04 11:32:01;;;;;;;5.25;2.20;;;18.00;99.90;;;;;;5065766;28;20580;-80
2021/09/04 11:34:51;;;;;;;4.82;2.50;;;18.40;99.90;;;;;;5063713;28;20788;-78
2021/09/04 11:37:18;;;;;;;3.97;2.17;;;18.60;99.90;;;;;;5049851;28;20613;-78
2021/09/04 11:39:45;;;;;;;3.75;2.30;;;18.40;99.90;;;;;;5069163;28;20211;-82
2021/09/04 11:42:19;;;;;;;2.53;1.90;;;18.20;99.90;;;;;;5053034;28;20664;-79
2021/09/04 11:44:50;;;;;;;6.30;2.22;;;18.10;99.90;;;;;;5069012;28;20709;-78
2021/09/04 11:47:16;;;;;;;7.18;4.82;;;18.80;99.90;;;;;;5069712;28;20178;-79
2021/09/04 11:49:46;;;;;;;3.53;2.00;;;19.30;99.90;;;;;;5069515;28;20197;-80
2021/09/04 11:52:17;;;;;;;5.43;2.58;;;19.60;99.90;;;;;;5069100;28;20289;-77
2021/09/04 11:54:43;;;;;;;4.05;2.30;;;20.00;99.90;;;;;;5068630;28;20182;-77
2021/09/04 11:57:28;;;;;;;3.05;1.95;;;19.90;99.90;;;;;;5069114;28;20207;-79
2021/09/04 12:00:00;;;;;;;3.20;1.95;;;19.80;99.90;;;;;;5067065;28;20194;-80
2021/09/04 12:02:25;;;;;;;1.88;1.40;;;19.20;99.90;;;;;;5068325;28;20228;-79
2021/09/04 12:04:51;;;;;;;2.83;2.00;;;18.90;99.90;;;;;;5067879;28;20179;-78
2021/09/04 12:07:17;;;;;;;5.75;3.05;;;18.90;99.90;;;;;;5049185;28;20263;-78
2021/09/04 12:09:43;;;;;;;3.42;2.35;;;18.90;99.90;;;;;;5067060;28;20713;-78
2021/09/04 12:12:09;;;;;;;3.70;2.53;;;18.80;99.90;;;;;;5067729;28;20182;-78
2021/09/04 12:14:35;;;;;;;2.92;1.95;;;18.80;99.90;;;;;;5066080;28;20253;-77
2021/09/04 12:17:00;;;;;;;5.18;2.70;;;19.10;99.90;;;;;;5066876;28;20197;-78
2021/09/04 12:19:26;;;;;;;3.08;2.08;;;19.20;99.90;;;;;;5067375;28;20189;-79
2021/09/04 12:21:52;;;;;;;6.07;2.10;;;19.10;99.90;;;;;;5049626;28;20185;-79
2021/09/04 12:24:29;;;;;;;4.18;1.92;;;19.40;99.90;;;;;;5048342;28;20181;-79
2021/09/04 12:26:55;;;;;;;4.07;2.22;;;19.50;99.90;;;;;;5048179;28;20266;-78
2021/09/04 12:29:28;;;;;;;3.10;1.80;;;19.40;99.90;;;;;;5048213;28;20203;-78
2021/09/04 12:32:08;;;;;;;3.25;1.90;;;19.50;99.90;;;;;;5065875;28;20206;-77
2021/09/04 12:34:35;;;;;;;3.03;1.92;;;19.70;99.90;;;;;;5065532;28;20677;-78
2021/09/04 12:37:01;;;;;;;4.45;2.38;;;19.60;99.90;;;;;;5065903;28;20185;-80
2021/09/04 12:39:28;;;;;;;2.80;2.25;;;19.70;99.90;;;;;;5048264;28;20763;-79
2021/09/04 12:42:08;;;;;;;5.68;2.00;;;19.70;99.90;;;;;;5047483;28;20185;-78
2021/09/04 12:44:45;;;;;;;3.53;1.88;;;19.70;99.90;;;;;;5047241;28;20712;-79
2021/09/04 12:47:12;;;;;;;2.85;1.50;;;19.90;99.90;;;;;;5064939;28;20193;-78